Aviation Digital Data Service (ADDS)

Output produced by METARs form (1823 UTC 25 March 2019)
found at http://www.aviationweather.gov/metar/data/
 
METAR text: UKBB 251800Z 27003MPS 240V330 CAVOK 05/00 Q1008 R88/CLRD// NOSIG
Conditions at: UKBB (BORISPOL'/KIEV , UA) observed 1800 UTC 25 March 2019
Temperature: 5.0°C (41°F)
Dewpoint: 0.0°C (32°F) [RH = 70%]
Pressure (altimeter): 29.76 inches Hg (1008.0 mb)
Winds: from the W (270 degrees) at 7 MPH (6 knots; 3.1 m/s)
Visibility: 6 or more miles (10+ km)
Ceiling: ceiling and visibility are OK
Clouds: unknown
Weather: no significant weather observed at this time

METAR text: UKBB 251730Z 27002MPS CAVOK 05/M01 Q1008 R88/D NOSIG
Conditions at: UKBB (BORISPOL'/KIEV , UA) observed 1730 UTC 25 March 2019
Temperature: 5.0°C (41°F)
Dewpoint: -1.0°C (30°F) [RH = 65%]
Pressure (altimeter): 29.76 inches Hg (1008.0 mb)
Winds: from the W (270 degrees) at 5 MPH (4 knots; 2.1 m/s)
Visibility: 6 or more miles (10+ km)
Ceiling: ceiling and visibility are OK
Clouds: unknown
Weather: no significant weather observed at this time

METAR text: UKBB 251700Z 26001MPS CAVOK 05/M00 Q1008 R88/D NOSIG
Conditions at: UKBB (BORISPOL'/KIEV , UA) observed 1700 UTC 25 March 2019
Temperature: 5.0°C (41°F)
Dewpoint: 0.0°C (32°F) [RH = 70%]
Pressure (altimeter): 29.76 inches Hg (1008.0 mb)
Winds: from the W (260 degrees) at 2 MPH (2 knots; 1.0 m/s)
Visibility: 6 or more miles (10+ km)
Ceiling: ceiling and visibility are OK
Clouds: unknown
Weather: no significant weather observed at this time

METAR text: UKBB 251630Z 25002MPS CAVOK 06/M01 Q1008 R88/D NOSIG
Conditions at: UKBB (BORISPOL'/KIEV , UA) observed 1630 UTC 25 March 2019
Temperature: 6.0°C (43°F)
Dewpoint: -1.0°C (30°F) [RH = 61%]
Pressure (altimeter): 29.76 inches Hg (1008.0 mb)
Winds: from the WSW (250 degrees) at 5 MPH (4 knots; 2.1 m/s)
Visibility: 6 or more miles (10+ km)
Ceiling: ceiling and visibility are OK
Clouds: unknown
Weather: no significant weather observed at this time

METAR text: UKBB 251600Z 24003MPS 9999 BKN049 07/M01 Q1008 R88/D NOSIG
Conditions at: UKBB (BORISPOL'/KIEV , UA) observed 1600 UTC 25 March 2019
Temperature: 7.0°C (45°F)
Dewpoint: -1.0°C (30°F) [RH = 57%]
Pressure (altimeter): 29.76 inches Hg (1008.0 mb)
Winds: from the WSW (240 degrees) at 7 MPH (6 knots; 3.1 m/s)
Visibility: 6 or more miles (10+ km)
Ceiling: 4900 feet AGL
Clouds: broken clouds at 4900 feet AGL
Weather: no significant weather observed at this time

METAR text: UKBB 251530Z 24003MPS 9999 FEW040CB BKN049 07/M01 Q1008 R88/CLRD// NOSIG
Conditions at: UKBB (BORISPOL'/KIEV , UA) observed 1530 UTC 25 March 2019
Temperature: 7.0°C (45°F)
Dewpoint: -1.0°C (30°F) [RH = 57%]
Pressure (altimeter): 29.76 inches Hg (1008.0 mb)
Winds: from the WSW (240 degrees) at 7 MPH (6 knots; 3.1 m/s)
Visibility: 6 or more miles (10+ km)
Ceiling: 4900 feet AGL
Clouds: few clouds at 4000 feet AGL
broken clouds at 4900 feet AGL
Weather: no significant weather observed at this time

METAR text: UKBB 251500Z 29003MPS 9999 FEW040CB BKN049 07/00 Q1008 R88/CLRD// NOSIG
Conditions at: UKBB (BORISPOL'/KIEV , UA) observed 1500 UTC 25 March 2019
Temperature: 7.0°C (45°F)
Dewpoint: 0.0°C (32°F) [RH = 61%]
Pressure (altimeter): 29.76 inches Hg (1008.0 mb)
Winds: from the WNW (290 degrees) at 7 MPH (6 knots; 3.1 m/s)
Visibility: 6 or more miles (10+ km)
Ceiling: 4900 feet AGL
Clouds: few clouds at 4000 feet AGL
broken clouds at 4900 feet AGL
Weather: no significant weather observed at this time

METAR text: UKBB 251430Z 31003MPS 9999 FEW036CB BKN046 08/M02 Q1008 R88/CLRD// NOSIG
Conditions at: UKBB (BORISPOL'/KIEV , UA) observed 1430 UTC 25 March 2019
Temperature: 8.0°C (46°F)
Dewpoint: -2.0°C (28°F) [RH = 49%]
Pressure (altimeter): 29.76 inches Hg (1008.0 mb)
Winds: from the NW (310 degrees) at 7 MPH (6 knots; 3.1 m/s)
Visibility: 6 or more miles (10+ km)
Ceiling: 4600 feet AGL
Clouds: few clouds at 3600 feet AGL
broken clouds at 4600 feet AGL
Weather: no significant weather observed at this time

METAR text: UKBB 251400Z 31004MPS 260V340 9999 FEW036CB BKN046 08/M01 Q1008 R88/D NOSIG
Conditions at: UKBB (BORISPOL'/KIEV , UA) observed 1400 UTC 25 March 2019
Temperature: 8.0°C (46°F)
Dewpoint: -1.0°C (30°F) [RH = 53%]
Pressure (altimeter): 29.76 inches Hg (1008.0 mb)
Winds: from the NW (310 degrees) at 9 MPH (8 knots; 4.1 m/s)
Visibility: 6 or more miles (10+ km)
Ceiling: 4600 feet AGL
Clouds: few clouds at 3600 feet AGL
broken clouds at 4600 feet AGL
Weather: no significant weather observed at this time

METAR text: UKBB 251330Z 31004MPS 260V330 9999 FEW036CB BKN046 08/M02 Q1008 R88/CLRD// NOSIG
Conditions at: UKBB (BORISPOL'/KIEV , UA) observed 1330 UTC 25 March 2019
Temperature: 8.0°C (46°F)
Dewpoint: -2.0°C (28°F) [RH = 49%]
Pressure (altimeter): 29.76 inches Hg (1008.0 mb)
Winds: from the NW (310 degrees) at 9 MPH (8 knots; 4.1 m/s)
Visibility: 6 or more miles (10+ km)
Ceiling: 4600 feet AGL
Clouds: few clouds at 3600 feet AGL
broken clouds at 4600 feet AGL
Weather: no significant weather observed at this time

METAR text: UKBB 251300Z 26002MPS 130V300 9999 FEW033CB BKN049 09/M05 Q1008 R88/D NOSIG
Conditions at: UKBB (BORISPOL'/KIEV , UA) observed 1300 UTC 25 March 2019
Temperature: 9.0°C (48°F)
Dewpoint: -5.0°C (23°F) [RH = 37%]
Pressure (altimeter): 29.76 inches Hg (1008.0 mb)
Winds: from the W (260 degrees) at 5 MPH (4 knots; 2.1 m/s)
Visibility: 6 or more miles (10+ km)
Ceiling: 4900 feet AGL
Clouds: few clouds at 3300 feet AGL
broken clouds at 4900 feet AGL
Weather: no significant weather observed at this time

METAR text: UKBB 251230Z 20002MPS 150V260 CAVOK 10/M06 Q1008 R88/D NOSIG
Conditions at: UKBB (BORISPOL'/KIEV , UA) observed 1230 UTC 25 March 2019
Temperature: 10.0°C (50°F)
Dewpoint: -6.0°C (21°F) [RH = 32%]
Pressure (altimeter): 29.76 inches Hg (1008.0 mb)
Winds: from the SSW (200 degrees) at 5 MPH (4 knots; 2.1 m/s)
Visibility: 6 or more miles (10+ km)
Ceiling: ceiling and visibility are OK
Clouds: unknown
Weather: no significant weather observed at this time

METAR text: UKBB 251200Z 25002MPS 190V320 CAVOK 10/M05 Q1008 R88/D NOSIG
Conditions at: UKBB (BORISPOL'/KIEV , UA) observed 1200 UTC 25 March 2019
Temperature: 10.0°C (50°F)
Dewpoint: -5.0°C (23°F) [RH = 34%]
Pressure (altimeter): 29.76 inches Hg (1008.0 mb)
Winds: from the WSW (250 degrees) at 5 MPH (4 knots; 2.1 m/s)
Visibility: 6 or more miles (10+ km)
Ceiling: ceiling and visibility are OK
Clouds: unknown
Weather: no significant weather observed at this time

METAR text: UKBB 251130Z 24002MPS 190V290 CAVOK 10/M05 Q1009 R88/CLRD// NOSIG
Conditions at: UKBB (BORISPOL'/KIEV , UA) observed 1130 UTC 25 March 2019
Temperature: 10.0°C (50°F)
Dewpoint: -5.0°C (23°F) [RH = 34%]
Pressure (altimeter): 29.79 inches Hg (1009.0 mb)
Winds: from the WSW (240 degrees) at 5 MPH (4 knots; 2.1 m/s)
Visibility: 6 or more miles (10+ km)
Ceiling: ceiling and visibility are OK
Clouds: unknown
Weather: no significant weather observed at this time

METAR text: UKBB 251100Z 22002MPS 170V320 CAVOK 10/M04 Q1009 R88/CLRD// NOSIG
Conditions at: UKBB (BORISPOL'/KIEV , UA) observed 1100 UTC 25 March 2019
Temperature: 10.0°C (50°F)
Dewpoint: -4.0°C (25°F) [RH = 37%]
Pressure (altimeter): 29.79 inches Hg (1009.0 mb)
Winds: from the SW (220 degrees) at 5 MPH (4 knots; 2.1 m/s)
Visibility: 6 or more miles (10+ km)
Ceiling: ceiling and visibility are OK
Clouds: unknown
Weather: no significant weather observed at this time

METAR text: UKBB 251030Z 21002MPS 180V240 CAVOK 10/M04 Q1010 R88/D NOSIG
Conditions at: UKBB (BORISPOL'/KIEV , UA) observed 1030 UTC 25 March 2019
Temperature: 10.0°C (50°F)
Dewpoint: -4.0°C (25°F) [RH = 37%]
Pressure (altimeter): 29.82 inches Hg (1010.0 mb)
Winds: from the SSW (210 degrees) at 5 MPH (4 knots; 2.1 m/s)
Visibility: 6 or more miles (10+ km)
Ceiling: ceiling and visibility are OK
Clouds: unknown
Weather: no significant weather observed at this time

METAR text: UKBB 251000Z 21002MPS 150V300 CAVOK 09/M03 Q1010 R88/D NOSIG
Conditions at: UKBB (BORISPOL'/KIEV , UA) observed 1000 UTC 25 March 2019
Temperature: 9.0°C (48°F)
Dewpoint: -3.0°C (27°F) [RH = 43%]
Pressure (altimeter): 29.82 inches Hg (1010.0 mb)
Winds: from the SSW (210 degrees) at 5 MPH (4 knots; 2.1 m/s)
Visibility: 6 or more miles (10+ km)
Ceiling: ceiling and visibility are OK
Clouds: unknown
Weather: no significant weather observed at this time

METAR text: UKBB 250930Z 19003MPS 140V220 CAVOK 09/M04 Q1010 R88/D NOSIG
Conditions at: UKBB (BORISPOL'/KIEV , UA) observed 0930 UTC 25 March 2019
Temperature: 9.0°C (48°F)
Dewpoint: -4.0°C (25°F) [RH = 40%]
Pressure (altimeter): 29.82 inches Hg (1010.0 mb)
Winds: from the S (190 degrees) at 7 MPH (6 knots; 3.1 m/s)
Visibility: 6 or more miles (10+ km)
Ceiling: ceiling and visibility are OK
Clouds: unknown
Weather: no significant weather observed at this time

METAR text: UKBB 250900Z 20002MPS 150V250 CAVOK 08/M04 Q1010 R88/D NOSIG
Conditions at: UKBB (BORISPOL'/KIEV , UA) observed 0900 UTC 25 March 2019
Temperature: 8.0°C (46°F)
Dewpoint: -4.0°C (25°F) [RH = 42%]
Pressure (altimeter): 29.82 inches Hg (1010.0 mb)
Winds: from the SSW (200 degrees) at 5 MPH (4 knots; 2.1 m/s)
Visibility: 6 or more miles (10+ km)
Ceiling: ceiling and visibility are OK
Clouds: unknown
Weather: no significant weather observed at this time

METAR text: UKBB 250830Z 18003MPS 150V210 CAVOK 07/M03 Q1011 R88/D NOSIG
Conditions at: UKBB (BORISPOL'/KIEV , UA) observed 0830 UTC 25 March 2019
Temperature: 7.0°C (45°F)
Dewpoint: -3.0°C (27°F) [RH = 49%]
Pressure (altimeter): 29.85 inches Hg (1011.0 mb)
Winds: from the S (180 degrees) at 7 MPH (6 knots; 3.1 m/s)
Visibility: 6 or more miles (10+ km)
Ceiling: ceiling and visibility are OK
Clouds: unknown
Weather: no significant weather observed at this time

METAR text: UKBB 250800Z 17003MPS CAVOK 07/M02 Q1011 R88/D NOSIG
Conditions at: UKBB (BORISPOL'/KIEV , UA) observed 0800 UTC 25 March 2019
Temperature: 7.0°C (45°F)
Dewpoint: -2.0°C (28°F) [RH = 53%]
Pressure (altimeter): 29.85 inches Hg (1011.0 mb)
Winds: from the S (170 degrees) at 7 MPH (6 knots; 3.1 m/s)
Visibility: 6 or more miles (10+ km)
Ceiling: ceiling and visibility are OK
Clouds: unknown
Weather: no significant weather observed at this time

METAR text: UKBB 250730Z 13002MPS 100V160 CAVOK 06/M02 Q1011 R88/D NOSIG
Conditions at: UKBB (BORISPOL'/KIEV , UA) observed 0730 UTC 25 March 2019
Temperature: 6.0°C (43°F)
Dewpoint: -2.0°C (28°F) [RH = 56%]
Pressure (altimeter): 29.85 inches Hg (1011.0 mb)
Winds: from the SE (130 degrees) at 5 MPH (4 knots; 2.1 m/s)
Visibility: 6 or more miles (10+ km)
Ceiling: ceiling and visibility are OK
Clouds: unknown
Weather: no significant weather observed at this time

METAR text: UKBB 250700Z VRB01MPS CAVOK 04/M01 Q1012 R88/D NOSIG
Conditions at: UKBB (BORISPOL'/KIEV , UA) observed 0700 UTC 25 March 2019
Temperature: 4.0°C (39°F)
Dewpoint: -1.0°C (30°F) [RH = 70%]
Pressure (altimeter): 29.88 inches Hg (1012.0 mb)
Winds: variable direction winds at 2 MPH (2 knots; 1.0 m/s)
Visibility: 6 or more miles (10+ km)
Ceiling: ceiling and visibility are OK
Clouds: unknown
Weather: no significant weather observed at this time

METAR text: UKBB 250630Z VRB01MPS CAVOK 03/M02 Q1012 R88/CLRD// NOSIG
Conditions at: UKBB (BORISPOL'/KIEV , UA) observed 0630 UTC 25 March 2019
Temperature: 3.0°C (37°F)
Dewpoint: -2.0°C (28°F) [RH = 70%]
Pressure (altimeter): 29.88 inches Hg (1012.0 mb)
Winds: variable direction winds at 2 MPH (2 knots; 1.0 m/s)
Visibility: 6 or more miles (10+ km)
Ceiling: ceiling and visibility are OK
Clouds: unknown
Weather: no significant weather observed at this time

METAR text: UKBB 250600Z 00000MPS CAVOK 03/M00 Q1012 R88/D NOSIG
Conditions at: UKBB (BORISPOL'/KIEV , UA) observed 0600 UTC 25 March 2019
Temperature: 3.0°C (37°F)
Dewpoint: 0.0°C (32°F) [RH = 81%]
Pressure (altimeter): 29.88 inches Hg (1012.0 mb)
Winds: calm
Visibility: 6 or more miles (10+ km)
Ceiling: ceiling and visibility are OK
Clouds: unknown
Weather: no significant weather observed at this time

METAR text: UKBB 250530Z 25001MPS CAVOK 01/M01 Q1012 R88/CLRD// NOSIG
Conditions at: UKBB (BORISPOL'/KIEV , UA) observed 0530 UTC 25 March 2019
Temperature: 1.0°C (34°F)
Dewpoint: -1.0°C (30°F) [RH = 86%]
Pressure (altimeter): 29.88 inches Hg (1012.0 mb)
Winds: from the WSW (250 degrees) at 2 MPH (2 knots; 1.0 m/s)
Visibility: 6 or more miles (10+ km)
Ceiling: ceiling and visibility are OK
Clouds: unknown
Weather: no significant weather observed at this time

METAR text: UKBB 250500Z 21001MPS CAVOK M00/M02 Q1012 R88/D NOSIG
Conditions at: UKBB (BORISPOL'/KIEV , UA) observed 0500 UTC 25 March 2019
Temperature: 0.0°C (32°F)
Dewpoint: -2.0°C (28°F) [RH = 86%]
Pressure (altimeter): 29.88 inches Hg (1012.0 mb)
Winds: from the SSW (210 degrees) at 2 MPH (2 knots; 1.0 m/s)
Visibility: 6 or more miles (10+ km)
Ceiling: ceiling and visibility are OK
Clouds: unknown
Weather: no significant weather observed at this time

METAR text: UKBB 250430Z 24001MPS CAVOK M01/M03 Q1012 R88/CLRD// NOSIG
Conditions at: UKBB (BORISPOL'/KIEV , UA) observed 0430 UTC 25 March 2019
Temperature: -1.0°C (30°F)
Dewpoint: -3.0°C (27°F) [RH = 86%]
Pressure (altimeter): 29.88 inches Hg (1012.0 mb)
Winds: from the WSW (240 degrees) at 2 MPH (2 knots; 1.0 m/s)
Visibility: 6 or more miles (10+ km)
Ceiling: ceiling and visibility are OK
Clouds: unknown
Weather: no significant weather observed at this time

METAR text: UKBB 250400Z 33001MPS CAVOK M02/M03 Q1012 R88/D NOSIG
Conditions at: UKBB (BORISPOL'/KIEV , UA) observed 0400 UTC 25 March 2019
Temperature: -2.0°C (28°F)
Dewpoint: -3.0°C (27°F) [RH = 93%]
Pressure (altimeter): 29.88 inches Hg (1012.0 mb)
Winds: from the NNW (330 degrees) at 2 MPH (2 knots; 1.0 m/s)
Visibility: 6 or more miles (10+ km)
Ceiling: ceiling and visibility are OK
Clouds: unknown
Weather: no significant weather observed at this time

METAR text: UKBB 250330Z 25001MPS CAVOK M02/M04 Q1012 R88/D NOSIG
Conditions at: UKBB (BORISPOL'/KIEV , UA) observed 0330 UTC 25 March 2019
Temperature: -2.0°C (28°F)
Dewpoint: -4.0°C (25°F) [RH = 86%]
Pressure (altimeter): 29.88 inches Hg (1012.0 mb)
Winds: from the WSW (250 degrees) at 2 MPH (2 knots; 1.0 m/s)
Visibility: 6 or more miles (10+ km)
Ceiling: ceiling and visibility are OK
Clouds: unknown
Weather: no significant weather observed at this time

METAR text: UKBB 250300Z 31001MPS CAVOK M02/M04 Q1012 R88/D NOSIG
Conditions at: UKBB (BORISPOL'/KIEV , UA) observed 0300 UTC 25 March 2019
Temperature: -2.0°C (28°F)
Dewpoint: -4.0°C (25°F) [RH = 86%]
Pressure (altimeter): 29.88 inches Hg (1012.0 mb)
Winds: from the NW (310 degrees) at 2 MPH (2 knots; 1.0 m/s)
Visibility: 6 or more miles (10+ km)
Ceiling: ceiling and visibility are OK
Clouds: unknown
Weather: no significant weather observed at this time

METAR text: UKBB 250230Z 30001MPS CAVOK M01/M03 Q1013 R88/D NOSIG
Conditions at: UKBB (BORISPOL'/KIEV , UA) observed 0230 UTC 25 March 2019
Temperature: -1.0°C (30°F)
Dewpoint: -3.0°C (27°F) [RH = 86%]
Pressure (altimeter): 29.91 inches Hg (1013.0 mb)
Winds: from the WNW (300 degrees) at 2 MPH (2 knots; 1.0 m/s)
Visibility: 6 or more miles (10+ km)
Ceiling: ceiling and visibility are OK
Clouds: unknown
Weather: no significant weather observed at this time

METAR text: UKBB 250200Z 32001MPS CAVOK M01/M03 Q1013 R88/D NOSIG
Conditions at: UKBB (BORISPOL'/KIEV , UA) observed 0200 UTC 25 March 2019
Temperature: -1.0°C (30°F)
Dewpoint: -3.0°C (27°F) [RH = 86%]
Pressure (altimeter): 29.91 inches Hg (1013.0 mb)
Winds: from the NW (320 degrees) at 2 MPH (2 knots; 1.0 m/s)
Visibility: 6 or more miles (10+ km)
Ceiling: ceiling and visibility are OK
Clouds: unknown
Weather: no significant weather observed at this time

METAR text: UKBB 250130Z 29001MPS CAVOK M01/M04 Q1013 R88/D NOSIG
Conditions at: UKBB (BORISPOL'/KIEV , UA) observed 0130 UTC 25 March 2019
Temperature: -1.0°C (30°F)
Dewpoint: -4.0°C (25°F) [RH = 80%]
Pressure (altimeter): 29.91 inches Hg (1013.0 mb)
Winds: from the WNW (290 degrees) at 2 MPH (2 knots; 1.0 m/s)
Visibility: 6 or more miles (10+ km)
Ceiling: ceiling and visibility are OK
Clouds: unknown
Weather: no significant weather observed at this time

METAR text: UKBB 250100Z 28002MPS CAVOK M01/M04 Q1013 R88/D NOSIG
Conditions at: UKBB (BORISPOL'/KIEV , UA) observed 0100 UTC 25 March 2019
Temperature: -1.0°C (30°F)
Dewpoint: -4.0°C (25°F) [RH = 80%]
Pressure (altimeter): 29.91 inches Hg (1013.0 mb)
Winds: from the W (280 degrees) at 5 MPH (4 knots; 2.1 m/s)
Visibility: 6 or more miles (10+ km)
Ceiling: ceiling and visibility are OK
Clouds: unknown
Weather: no significant weather observed at this time

METAR text: UKBB 250030Z 29001MPS CAVOK M00/M03 Q1013 R88/D NOSIG
Conditions at: UKBB (BORISPOL'/KIEV , UA) observed 0030 UTC 25 March 2019
Temperature: 0.0°C (32°F)
Dewpoint: -3.0°C (27°F) [RH = 80%]
Pressure (altimeter): 29.91 inches Hg (1013.0 mb)
Winds: from the WNW (290 degrees) at 2 MPH (2 knots; 1.0 m/s)
Visibility: 6 or more miles (10+ km)
Ceiling: ceiling and visibility are OK
Clouds: unknown
Weather: no significant weather observed at this time

METAR text: UKBB 250000Z 32002MPS CAVOK 00/M03 Q1014 R88/D NOSIG
Conditions at: UKBB (BORISPOL'/KIEV , UA) observed 0000 UTC 25 March 2019
Temperature: 0.0°C (32°F)
Dewpoint: -3.0°C (27°F) [RH = 80%]
Pressure (altimeter): 29.94 inches Hg (1014.0 mb)
Winds: from the NW (320 degrees) at 5 MPH (4 knots; 2.1 m/s)
Visibility: 6 or more miles (10+ km)
Ceiling: ceiling and visibility are OK
Clouds: unknown
Weather: no significant weather observed at this time

METAR text: UKBB 242330Z 31002MPS CAVOK M00/M03 Q1014 R88/D NOSIG
Conditions at: UKBB (BORISPOL'/KIEV , UA) observed 2330 UTC 24 March 2019
Temperature: 0.0°C (32°F)
Dewpoint: -3.0°C (27°F) [RH = 80%]
Pressure (altimeter): 29.94 inches Hg (1014.0 mb)
Winds: from the NW (310 degrees) at 5 MPH (4 knots; 2.1 m/s)
Visibility: 6 or more miles (10+ km)
Ceiling: ceiling and visibility are OK
Clouds: unknown
Weather: no significant weather observed at this time

METAR text: UKBB 242300Z 29003MPS CAVOK M01/M04 Q1014 R88/D NOSIG
Conditions at: UKBB (BORISPOL'/KIEV , UA) observed 2300 UTC 24 March 2019
Temperature: -1.0°C (30°F)
Dewpoint: -4.0°C (25°F) [RH = 80%]
Pressure (altimeter): 29.94 inches Hg (1014.0 mb)
Winds: from the WNW (290 degrees) at 7 MPH (6 knots; 3.1 m/s)
Visibility: 6 or more miles (10+ km)
Ceiling: ceiling and visibility are OK
Clouds: unknown
Weather: no significant weather observed at this time

METAR text: UKBB 242230Z 28002MPS CAVOK 01/M04 Q1014 R88/D NOSIG
Conditions at: UKBB (BORISPOL'/KIEV , UA) observed 2230 UTC 24 March 2019
Temperature: 1.0°C (34°F)
Dewpoint: -4.0°C (25°F) [RH = 69%]
Pressure (altimeter): 29.94 inches Hg (1014.0 mb)
Winds: from the W (280 degrees) at 5 MPH (4 knots; 2.1 m/s)
Visibility: 6 or more miles (10+ km)
Ceiling: ceiling and visibility are OK
Clouds: unknown
Weather: no significant weather observed at this time

METAR text: UKBB 242200Z 30002MPS CAVOK M00/M03 Q1014 R88/D NOSIG
Conditions at: UKBB (BORISPOL'/KIEV , UA) observed 2200 UTC 24 March 2019
Temperature: 0.0°C (32°F)
Dewpoint: -3.0°C (27°F) [RH = 80%]
Pressure (altimeter): 29.94 inches Hg (1014.0 mb)
Winds: from the WNW (300 degrees) at 5 MPH (4 knots; 2.1 m/s)
Visibility: 6 or more miles (10+ km)
Ceiling: ceiling and visibility are OK
Clouds: unknown
Weather: no significant weather observed at this time

METAR text: UKBB 242130Z 31003MPS CAVOK 00/M03 Q1014 R88/D NOSIG
Conditions at: UKBB (BORISPOL'/KIEV , UA) observed 2130 UTC 24 March 2019
Temperature: 0.0°C (32°F)
Dewpoint: -3.0°C (27°F) [RH = 80%]
Pressure (altimeter): 29.94 inches Hg (1014.0 mb)
Winds: from the NW (310 degrees) at 7 MPH (6 knots; 3.1 m/s)
Visibility: 6 or more miles (10+ km)
Ceiling: ceiling and visibility are OK
Clouds: unknown
Weather: no significant weather observed at this time

METAR text: UKBB 242100Z 31003MPS CAVOK M01/M03 Q1014 R88/D NOSIG
Conditions at: UKBB (BORISPOL'/KIEV , UA) observed 2100 UTC 24 March 2019
Temperature: -1.0°C (30°F)
Dewpoint: -3.0°C (27°F) [RH = 86%]
Pressure (altimeter): 29.94 inches Hg (1014.0 mb)
Winds: from the NW (310 degrees) at 7 MPH (6 knots; 3.1 m/s)
Visibility: 6 or more miles (10+ km)
Ceiling: ceiling and visibility are OK
Clouds: unknown
Weather: no significant weather observed at this time

METAR text: UKBB 242030Z 31003MPS CAVOK M01/M03 Q1014 R88/D NOSIG
Conditions at: UKBB (BORISPOL'/KIEV , UA) observed 2030 UTC 24 March 2019
Temperature: -1.0°C (30°F)
Dewpoint: -3.0°C (27°F) [RH = 86%]
Pressure (altimeter): 29.94 inches Hg (1014.0 mb)
Winds: from the NW (310 degrees) at 7 MPH (6 knots; 3.1 m/s)
Visibility: 6 or more miles (10+ km)
Ceiling: ceiling and visibility are OK
Clouds: unknown
Weather: no significant weather observed at this time

METAR text: UKBB 242000Z 30003MPS CAVOK M01/M02 Q1014 R88/D NOSIG
Conditions at: UKBB (BORISPOL'/KIEV , UA) observed 2000 UTC 24 March 2019
Temperature: -1.0°C (30°F)
Dewpoint: -2.0°C (28°F) [RH = 93%]
Pressure (altimeter): 29.94 inches Hg (1014.0 mb)
Winds: from the WNW (300 degrees) at 7 MPH (6 knots; 3.1 m/s)
Visibility: 6 or more miles (10+ km)
Ceiling: ceiling and visibility are OK
Clouds: unknown
Weather: no significant weather observed at this time

METAR text: UKBB 241930Z 31003MPS CAVOK 01/M01 Q1014 R88/D NOSIG
Conditions at: UKBB (BORISPOL'/KIEV , UA) observed 1930 UTC 24 March 2019
Temperature: 1.0°C (34°F)
Dewpoint: -1.0°C (30°F) [RH = 86%]
Pressure (altimeter): 29.94 inches Hg (1014.0 mb)
Winds: from the NW (310 degrees) at 7 MPH (6 knots; 3.1 m/s)
Visibility: 6 or more miles (10+ km)
Ceiling: ceiling and visibility are OK
Clouds: unknown
Weather: no significant weather observed at this time

METAR text: UKBB 241900Z 28002MPS CAVOK 03/M01 Q1014 R88/D NOSIG
Conditions at: UKBB (BORISPOL'/KIEV , UA) observed 1900 UTC 24 March 2019
Temperature: 3.0°C (37°F)
Dewpoint: -1.0°C (30°F) [RH = 75%]
Pressure (altimeter): 29.94 inches Hg (1014.0 mb)
Winds: from the W (280 degrees) at 5 MPH (4 knots; 2.1 m/s)
Visibility: 6 or more miles (10+ km)
Ceiling: ceiling and visibility are OK
Clouds: unknown
Weather: no significant weather observed at this time

METAR text: UKBB 241830Z 27002MPS CAVOK 02/M00 Q1014 R88/CLRD// NOSIG
Conditions at: UKBB (BORISPOL'/KIEV , UA) observed 1830 UTC 24 March 2019
Temperature: 2.0°C (36°F)
Dewpoint: 0.0°C (32°F) [RH = 87%]
Pressure (altimeter): 29.94 inches Hg (1014.0 mb)
Winds: from the W (270 degrees) at 5 MPH (4 knots; 2.1 m/s)
Visibility: 6 or more miles (10+ km)
Ceiling: ceiling and visibility are OK
Clouds: unknown
Weather: no significant weather observed at this time

METAR text: UKBB 241800Z 28002MPS CAVOK 02/M00 Q1014 R88/D NOSIG
Conditions at: UKBB (BORISPOL'/KIEV , UA) observed 1800 UTC 24 March 2019
Temperature: 2.0°C (36°F)
Dewpoint: 0.0°C (32°F) [RH = 87%]
Pressure (altimeter): 29.94 inches Hg (1014.0 mb)
Winds: from the W (280 degrees) at 5 MPH (4 knots; 2.1 m/s)
Visibility: 6 or more miles (10+ km)
Ceiling: ceiling and visibility are OK
Clouds: unknown
Weather: no significant weather observed at this time

METAR text: UKBB 241730Z 26002MPS CAVOK 03/M00 Q1014 R88/D NOSIG
Conditions at: UKBB (BORISPOL'/KIEV , UA) observed 1730 UTC 24 March 2019
Temperature: 3.0°C (37°F)
Dewpoint: 0.0°C (32°F) [RH = 81%]
Pressure (altimeter): 29.94 inches Hg (1014.0 mb)
Winds: from the W (260 degrees) at 5 MPH (4 knots; 2.1 m/s)
Visibility: 6 or more miles (10+ km)
Ceiling: ceiling and visibility are OK
Clouds: unknown
Weather: no significant weather observed at this time

METAR text: UKBB 241700Z 26002MPS CAVOK 04/01 Q1014 R88/D NOSIG
Conditions at: UKBB (BORISPOL'/KIEV , UA) observed 1700 UTC 24 March 2019
Temperature: 4.0°C (39°F)
Dewpoint: 1.0°C (34°F) [RH = 81%]
Pressure (altimeter): 29.94 inches Hg (1014.0 mb)
Winds: from the W (260 degrees) at 5 MPH (4 knots; 2.1 m/s)
Visibility: 6 or more miles (10+ km)
Ceiling: ceiling and visibility are OK
Clouds: unknown
Weather: no significant weather observed at this time

METAR text: UKBB 241630Z 27002MPS CAVOK 07/01 Q1013 R88/D NOSIG
Conditions at: UKBB (BORISPOL'/KIEV , UA) observed 1630 UTC 24 March 2019
Temperature: 7.0°C (45°F)
Dewpoint: 1.0°C (34°F) [RH = 66%]
Pressure (altimeter): 29.91 inches Hg (1013.0 mb)
Winds: from the W (270 degrees) at 5 MPH (4 knots; 2.1 m/s)
Visibility: 6 or more miles (10+ km)
Ceiling: ceiling and visibility are OK
Clouds: unknown
Weather: no significant weather observed at this time

METAR text: UKBB 241600Z 26002MPS 190V270 CAVOK 09/01 Q1013 R88/D NOSIG
Conditions at: UKBB (BORISPOL'/KIEV , UA) observed 1600 UTC 24 March 2019
Temperature: 9.0°C (48°F)
Dewpoint: 1.0°C (34°F) [RH = 57%]
Pressure (altimeter): 29.91 inches Hg (1013.0 mb)
Winds: from the W (260 degrees) at 5 MPH (4 knots; 2.1 m/s)
Visibility: 6 or more miles (10+ km)
Ceiling: ceiling and visibility are OK
Clouds: unknown
Weather: no significant weather observed at this time

METAR text: UKBB 241530Z 30002MPS CAVOK 09/02 Q1013 R88/CLRD// NOSIG
Conditions at: UKBB (BORISPOL'/KIEV , UA) observed 1530 UTC 24 March 2019
Temperature: 9.0°C (48°F)
Dewpoint: 2.0°C (36°F) [RH = 61%]
Pressure (altimeter): 29.91 inches Hg (1013.0 mb)
Winds: from the WNW (300 degrees) at 5 MPH (4 knots; 2.1 m/s)
Visibility: 6 or more miles (10+ km)
Ceiling: ceiling and visibility are OK
Clouds: unknown
Weather: no significant weather observed at this time

METAR text: UKBB 241500Z 31002MPS CAVOK 11/02 Q1013 R88/D TEMPO 31006G12MPS
Conditions at: UKBB (BORISPOL'/KIEV , UA) observed 1500 UTC 24 March 2019
Temperature: 11.0°C (52°F)
Dewpoint: 2.0°C (36°F) [RH = 54%]
Pressure (altimeter): 29.91 inches Hg (1013.0 mb)
Winds: from the NW (310 degrees) at 5 MPH (4 knots; 2.1 m/s)
Visibility: 6 or more miles (10+ km)
Ceiling: ceiling and visibility are OK
Clouds: unknown
Weather: no significant weather observed at this time

METAR text: UKBB 241430Z 31004MPS CAVOK 11/01 Q1013 R88/D TEMPO 31006G12MPS
Conditions at: UKBB (BORISPOL'/KIEV , UA) observed 1430 UTC 24 March 2019
Temperature: 11.0°C (52°F)
Dewpoint: 1.0°C (34°F) [RH = 50%]
Pressure (altimeter): 29.91 inches Hg (1013.0 mb)
Winds: from the NW (310 degrees) at 9 MPH (8 knots; 4.1 m/s)
Visibility: 6 or more miles (10+ km)
Ceiling: ceiling and visibility are OK
Clouds: unknown
Weather: no significant weather observed at this time

METAR text: UKBB 241400Z 32004MPS 9999 SCT040 10/01 Q1014 R88/D TEMPO 31006G12MPS
Conditions at: UKBB (BORISPOL'/KIEV , UA) observed 1400 UTC 24 March 2019
Temperature: 10.0°C (50°F)
Dewpoint: 1.0°C (34°F) [RH = 53%]
Pressure (altimeter): 29.94 inches Hg (1014.0 mb)
Winds: from the NW (320 degrees) at 9 MPH (8 knots; 4.1 m/s)
Visibility: 6 or more miles (10+ km)
Ceiling: at least 12,000 feet AGL
Clouds: scattered clouds at 4000 feet AGL
Weather: no significant weather observed at this time

METAR text: UKBB 241330Z 34006MPS 9999 SCT040 10/01 Q1014 R88/CLRD// TEMPO 31006G12MPS
Conditions at: UKBB (BORISPOL'/KIEV , UA) observed 1330 UTC 24 March 2019
Temperature: 10.0°C (50°F)
Dewpoint: 1.0°C (34°F) [RH = 53%]
Pressure (altimeter): 29.94 inches Hg (1014.0 mb)
Winds: from the NNW (340 degrees) at 14 MPH (12 knots; 6.2 m/s)
Visibility: 6 or more miles (10+ km)
Ceiling: at least 12,000 feet AGL
Clouds: scattered clouds at 4000 feet AGL
Weather: no significant weather observed at this time

METAR text: UKBB 241300Z 33007MPS 9999 SCT040 10/02 Q1014 R88/CLRD// TEMPO 31006G12MPS
Conditions at: UKBB (BORISPOL'/KIEV , UA) observed 1300 UTC 24 March 2019
Temperature: 10.0°C (50°F)
Dewpoint: 2.0°C (36°F) [RH = 57%]
Pressure (altimeter): 29.94 inches Hg (1014.0 mb)
Winds: from the NNW (330 degrees) at 16 MPH (14 knots; 7.2 m/s)
Visibility: 6 or more miles (10+ km)
Ceiling: at least 12,000 feet AGL
Clouds: scattered clouds at 4000 feet AGL
Weather: no significant weather observed at this time

METAR text: UKBB 241230Z 30004MPS 260V320 9999 SCT040 10/M00 Q1014 R88/CLRD// NOSIG
Conditions at: UKBB (BORISPOL'/KIEV , UA) observed 1230 UTC 24 March 2019
Temperature: 10.0°C (50°F)
Dewpoint: 0.0°C (32°F) [RH = 50%]
Pressure (altimeter): 29.94 inches Hg (1014.0 mb)
Winds: from the WNW (300 degrees) at 9 MPH (8 knots; 4.1 m/s)
Visibility: 6 or more miles (10+ km)
Ceiling: at least 12,000 feet AGL
Clouds: scattered clouds at 4000 feet AGL
Weather: no significant weather observed at this time

METAR text: UKBB 241200Z 29005MPS 260V320 9999 FEW024 SCT040 09/M01 Q1014 R88/D NOSIG
Conditions at: UKBB (BORISPOL'/KIEV , UA) observed 1200 UTC 24 March 2019
Temperature: 9.0°C (48°F)
Dewpoint: -1.0°C (30°F) [RH = 49%]
Pressure (altimeter): 29.94 inches Hg (1014.0 mb)
Winds: from the WNW (290 degrees) at 12 MPH (10 knots; 5.1 m/s)
Visibility: 6 or more miles (10+ km)
Ceiling: at least 12,000 feet AGL
Clouds: few clouds at 2400 feet AGL
scattered clouds at 4000 feet AGL
Weather: no significant weather observed at this time

METAR text: UKBB 241130Z 26004MPS 230V300 9999 SCT030 BKN044 08/M02 Q1014 R88/D NOSIG
Conditions at: UKBB (BORISPOL'/KIEV , UA) observed 1130 UTC 24 March 2019
Temperature: 8.0°C (46°F)
Dewpoint: -2.0°C (28°F) [RH = 49%]
Pressure (altimeter): 29.94 inches Hg (1014.0 mb)
Winds: from the W (260 degrees) at 9 MPH (8 knots; 4.1 m/s)
Visibility: 6 or more miles (10+ km)
Ceiling: 4400 feet AGL
Clouds: scattered clouds at 3000 feet AGL
broken clouds at 4400 feet AGL
Weather: no significant weather observed at this time

METAR text: UKBB 241100Z 24004MPS 9999 BKN046 08/M03 Q1015 R88/D NOSIG
Conditions at: UKBB (BORISPOL'/KIEV , UA) observed 1100 UTC 24 March 2019
Temperature: 8.0°C (46°F)
Dewpoint: -3.0°C (27°F) [RH = 46%]
Pressure (altimeter): 29.97 inches Hg (1015.0 mb)
Winds: from the WSW (240 degrees) at 9 MPH (8 knots; 4.1 m/s)
Visibility: 6 or more miles (10+ km)
Ceiling: 4600 feet AGL
Clouds: broken clouds at 4600 feet AGL
Weather: no significant weather observed at this time

METAR text: UKBB 241030Z 21004MPS 9999 OVC046 07/M03 Q1015 R88/D TEMPO 3000 -SHRA SCT015CB
Conditions at: UKBB (BORISPOL'/KIEV , UA) observed 1030 UTC 24 March 2019
Temperature: 7.0°C (45°F)
Dewpoint: -3.0°C (27°F) [RH = 49%]
Pressure (altimeter): 29.97 inches Hg (1015.0 mb)
Winds: from the SSW (210 degrees) at 9 MPH (8 knots; 4.1 m/s)
Visibility: 6 or more miles (10+ km)
Ceiling: 4600 feet AGL
Clouds: overcast cloud deck at 4600 feet AGL
Weather: no significant weather observed at this time

METAR text: UKBB 241000Z 23004MPS 9999 -RA OVC040 06/M03 Q1015 R88/CLRD// TEMPO 3000 -SHRA SCT015CB
Conditions at: UKBB (BORISPOL'/KIEV , UA) observed 1000 UTC 24 March 2019
Temperature: 6.0°C (43°F)
Dewpoint: -3.0°C (27°F) [RH = 52%]
Pressure (altimeter): 29.97 inches Hg (1015.0 mb)
Winds: from the SW (230 degrees) at 9 MPH (8 knots; 4.1 m/s)
Visibility: 6 or more miles (10+ km)
Ceiling: 4000 feet AGL
Clouds: overcast cloud deck at 4000 feet AGL
Weather: -RA  (light rain)

METAR text: UKBB 240930Z 24003MPS 9999 OVC040 06/M02 Q1016 R88/CLRD// TEMPO 3000 -SHRA SCT015CB
Conditions at: UKBB (BORISPOL'/KIEV , UA) observed 0930 UTC 24 March 2019
Temperature: 6.0°C (43°F)
Dewpoint: -2.0°C (28°F) [RH = 56%]
Pressure (altimeter): 30.00 inches Hg (1016.0 mb)
Winds: from the WSW (240 degrees) at 7 MPH (6 knots; 3.1 m/s)
Visibility: 6 or more miles (10+ km)
Ceiling: 4000 feet AGL
Clouds: overcast cloud deck at 4000 feet AGL
Weather: no significant weather observed at this time

METAR text: UKBB 240900Z 27004MPS 240V340 9999 -RA OVC040 05/M03 Q1016 R88/D TEMPO 3000 -SHRA SCT015CB
Conditions at: UKBB (BORISPOL'/KIEV , UA) observed 0900 UTC 24 March 2019
Temperature: 5.0°C (41°F)
Dewpoint: -3.0°C (27°F) [RH = 56%]
Pressure (altimeter): 30.00 inches Hg (1016.0 mb)
Winds: from the W (270 degrees) at 9 MPH (8 knots; 4.1 m/s)
Visibility: 6 or more miles (10+ km)
Ceiling: 4000 feet AGL
Clouds: overcast cloud deck at 4000 feet AGL
Weather: -RA  (light rain)

METAR text: UKBB 240830Z 24003MPS 9999 SCT049 05/M03 Q1016 R88/CLRD// NOSIG
Conditions at: UKBB (BORISPOL'/KIEV , UA) observed 0830 UTC 24 March 2019
Temperature: 5.0°C (41°F)
Dewpoint: -3.0°C (27°F) [RH = 56%]
Pressure (altimeter): 30.00 inches Hg (1016.0 mb)
Winds: from the WSW (240 degrees) at 7 MPH (6 knots; 3.1 m/s)
Visibility: 6 or more miles (10+ km)
Ceiling: at least 12,000 feet AGL
Clouds: scattered clouds at 4900 feet AGL
Weather: no significant weather observed at this time

METAR text: UKBB 240800Z 23004MPS CAVOK 04/M02 Q1017 R88/D NOSIG
Conditions at: UKBB (BORISPOL'/KIEV , UA) observed 0800 UTC 24 March 2019
Temperature: 4.0°C (39°F)
Dewpoint: -2.0°C (28°F) [RH = 65%]
Pressure (altimeter): 30.03 inches Hg (1017.0 mb)
Winds: from the SW (230 degrees) at 9 MPH (8 knots; 4.1 m/s)
Visibility: 6 or more miles (10+ km)
Ceiling: ceiling and visibility are OK
Clouds: unknown
Weather: no significant weather observed at this time

METAR text: UKBB 240730Z 22004MPS CAVOK 04/M02 Q1017 R88/CLRD// NOSIG
Conditions at: UKBB (BORISPOL'/KIEV , UA) observed 0730 UTC 24 March 2019
Temperature: 4.0°C (39°F)
Dewpoint: -2.0°C (28°F) [RH = 65%]
Pressure (altimeter): 30.03 inches Hg (1017.0 mb)
Winds: from the SW (220 degrees) at 9 MPH (8 knots; 4.1 m/s)
Visibility: 6 or more miles (10+ km)
Ceiling: ceiling and visibility are OK
Clouds: unknown
Weather: no significant weather observed at this time

METAR text: UKBB 240700Z 22004MPS CAVOK 03/M02 Q1017 R88/D NOSIG
Conditions at: UKBB (BORISPOL'/KIEV , UA) observed 0700 UTC 24 March 2019
Temperature: 3.0°C (37°F)
Dewpoint: -2.0°C (28°F) [RH = 70%]
Pressure (altimeter): 30.03 inches Hg (1017.0 mb)
Winds: from the SW (220 degrees) at 9 MPH (8 knots; 4.1 m/s)
Visibility: 6 or more miles (10+ km)
Ceiling: ceiling and visibility are OK
Clouds: unknown
Weather: no significant weather observed at this time

METAR text: UKBB 240630Z 19003MPS CAVOK 02/M02 Q1018 R88/CLRD// NOSIG
Conditions at: UKBB (BORISPOL'/KIEV , UA) observed 0630 UTC 24 March 2019
Temperature: 2.0°C (36°F)
Dewpoint: -2.0°C (28°F) [RH = 75%]
Pressure (altimeter): 30.06 inches Hg (1018.0 mb)
Winds: from the S (190 degrees) at 7 MPH (6 knots; 3.1 m/s)
Visibility: 6 or more miles (10+ km)
Ceiling: ceiling and visibility are OK
Clouds: unknown
Weather: no significant weather observed at this time

Forecast for: UKBB (BORISPOL'/KIEV , UA)
Text: TAF UKBB 251703Z 2518/2618 26003G08MPS 6000 BKN020 BKN040 TX06/2612Z TN01/2604Z
Forecast period: 1800 UTC 25 March 2019 to 0600 UTC 26 March 2019
Forecast type: FROM: standard forecast or significant change
Winds: from the W (260 degrees) at 7 MPH (6 knots; 3.1 m/s)
gusting to 18 MPH (16 knots; 8.2 m/s)
Visibility: 4 miles (6 km)
Ceiling: 2000 feet AGL
Clouds: broken clouds at 2000 feet AGL
broken clouds at 4000 feet AGL
Weather: no significant weather forecast for this period
Text: TEMPO 2518/2606 2100 -SHRA BR BKN007 SCT015CB
Forecast period: 1800 UTC 25 March 2019 to 0600 UTC 26 March 2019
Forecast type: TEMPORARY: The following changes expected for less than half the time period
Visibility: 1.30 miles (2.09 km)
Ceiling: 700 feet AGL
Clouds: broken clouds at 700 feet AGL
scattered clouds at 1500 feet AGL
Weather: -SHRA BR  (light rain showers, mist)
Text: BECMG 2606/2608 27005G10MPS 9999 BKN020
Forecast period: 0600 to 1800 UTC 26 March 2019
Forecast type: BECOMING: Conditions expected to become as follows by 0800 UTC 26 March 2019
Winds: from the W (270 degrees) at 12 MPH (10 knots; 5.1 m/s)
gusting to 22 MPH (19 knots; 9.8 m/s)
Visibility: 6 or more miles 10+ km)
Ceiling: 2000 feet AGL
Clouds: broken clouds at 2000 feet AGL
Weather: no significant weather forecast for this period
Text: TEMPO 2608/2618 30007G12MPS
Forecast period: 0800 to 1800 UTC 26 March 2019
Forecast type: TEMPORARY: The following changes expected for less than half the time period
Winds: from the WNW (300 degrees) at 16 MPH (14 knots; 7.2 m/s)
gusting to 26 MPH (23 knots; 11.8 m/s)
Visibility: missing
Ceiling: unknown
Clouds: missing
Weather: no significant weather forecast for this period